createdAt,value
2018-06-17T00:01:37.067Z,54.70
2018-06-17T00:04:04.008Z,54.80
2018-06-17T00:06:30.944Z,55.10
2018-06-17T00:08:58.137Z,55.40
2018-06-17T00:11:25.100Z,55.60
2018-06-17T00:13:52.043Z,55.80
2018-06-17T00:16:18.970Z,55.60
2018-06-17T00:18:46.018Z,55.80
2018-06-17T00:21:12.967Z,56.20
2018-06-17T00:23:39.942Z,56.50
2018-06-17T00:26:07.333Z,56.90
2018-06-17T00:28:34.380Z,57.30
2018-06-17T00:31:01.374Z,57.80
2018-06-17T00:33:28.349Z,57.40
2018-06-17T00:35:55.334Z,57.40
2018-06-17T00:38:22.272Z,57.40
2018-06-17T00:40:49.304Z,57.50
2018-06-17T00:43:16.405Z,57.40
2018-06-17T00:45:43.386Z,57.50
2018-06-17T00:48:10.648Z,57.60
2018-06-17T00:50:37.757Z,57.90
2018-06-17T00:53:04.751Z,58.00
2018-06-17T00:55:31.704Z,58.00
2018-06-17T00:57:58.636Z,58.20
2018-06-17T01:00:25.578Z,58.40
2018-06-17T01:02:52.520Z,58.90
2018-06-17T01:05:19.601Z,58.90
2018-06-17T01:07:46.554Z,59.10
2018-06-17T01:10:13.527Z,59.40
2018-06-17T01:12:40.643Z,59.60
2018-06-17T01:15:08.721Z,59.80
2018-06-17T01:17:36.172Z,59.90
2018-06-17T01:20:04.404Z,61.30
2018-06-17T01:22:31.437Z,60.40
2018-06-17T01:24:58.416Z,61.00
2018-06-17T01:27:25.327Z,61.70
2018-06-17T01:29:52.275Z,62.00
2018-06-17T01:32:19.226Z,62.60
2018-06-17T01:34:46.180Z,63.40
2018-06-17T01:37:13.092Z,63.30
2018-06-17T01:39:40.019Z,63.40
2018-06-17T01:42:06.943Z,63.80
2018-06-17T01:44:34.295Z,63.20
2018-06-17T01:47:01.459Z,63.30
2018-06-17T01:49:28.389Z,63.70
2018-06-17T01:51:55.321Z,63.30
2018-06-17T01:54:22.274Z,63.50
2018-06-17T01:56:49.209Z,63.80
2018-06-17T01:59:16.161Z,64.30
2018-06-17T02:01:43.251Z,64.30
2018-06-17T02:04:16.028Z,64.90
2018-06-17T02:06:48.754Z,64.70
2018-06-17T02:09:21.585Z,65.10
2018-06-17T02:11:54.486Z,65.40
2018-06-17T02:14:27.183Z,65.80
2018-06-17T02:17:05.336Z,66.10
2018-06-17T02:19:32.298Z,66.20
2018-06-17T02:21:59.375Z,66.50
2018-06-17T02:24:26.349Z,66.20
2018-06-17T02:26:53.414Z,66.40
2018-06-17T02:29:20.324Z,66.90
2018-06-17T02:31:47.290Z,67.30
2018-06-17T02:34:14.235Z,67.50
2018-06-17T02:36:41.195Z,67.60
2018-06-17T02:39:08.874Z,67.20
2018-06-17T02:41:36.517Z,68.50
2018-06-17T02:44:03.437Z,68.00
2018-06-17T02:46:36.318Z,68.20
2018-06-17T02:49:09.076Z,68.50
2018-06-17T02:51:41.891Z,68.80
2018-06-17T02:54:14.749Z,69.10
2018-06-17T02:56:41.697Z,69.20
2018-06-17T02:59:08.778Z,69.50
2018-06-17T03:01:35.717Z,69.80
2018-06-17T03:04:02.718Z,70.40
2018-06-17T03:06:29.636Z,70.40
2018-06-17T03:08:56.642Z,70.50
2018-06-17T03:11:23.592Z,70.70
2018-06-17T03:13:50.748Z,70.80
2018-06-17T03:16:17.722Z,71.50
2018-06-17T03:18:44.656Z,71.30
2018-06-17T03:21:11.591Z,71.30
2018-06-17T03:23:38.511Z,71.40
2018-06-17T03:26:11.181Z,71.40
2018-06-17T03:28:43.945Z,71.60
2018-06-17T03:31:17.624Z,71.80
2018-06-17T03:33:45.693Z,71.70
2018-06-17T03:36:12.820Z,71.90
2018-06-17T03:38:41.113Z,71.90
2018-06-17T03:41:08.443Z,72.10
2018-06-17T03:43:35.515Z,72.60
2018-06-17T03:46:02.706Z,72.40
2018-06-17T03:48:29.665Z,72.80
2018-06-17T03:50:56.840Z,73.50
2018-06-17T03:53:23.832Z,72.70
2018-06-17T03:55:50.839Z,72.60
2018-06-17T03:58:17.750Z,72.30
2018-06-17T04:00:44.837Z,72.20
2018-06-17T04:03:11.771Z,72.50
2018-06-17T04:05:38.679Z,71.90
2018-06-17T04:08:05.634Z,71.60
2018-06-17T04:10:32.624Z,71.50
2018-06-17T04:12:59.581Z,71.00
2018-06-17T04:15:26.537Z,70.70
2018-06-17T04:17:53.576Z,70.40
2018-06-17T04:20:20.530Z,69.90
2018-06-17T04:22:47.518Z,69.80
2018-06-17T04:25:14.488Z,69.60
2018-06-17T04:27:41.417Z,69.10
2018-06-17T04:30:08.373Z,68.40
2018-06-17T04:32:35.307Z,68.40
2018-06-17T04:35:02.225Z,67.80
2018-06-17T04:37:29.259Z,67.20
2018-06-17T04:39:56.438Z,65.50
2018-06-17T04:42:23.356Z,63.70
2018-06-17T04:44:50.281Z,61.60
2018-06-17T04:47:17.206Z,58.20
2018-06-17T04:49:44.137Z,56.30
2018-06-17T04:52:11.083Z,54.50
2018-06-17T04:54:38.007Z,52.30
2018-06-17T04:57:04.975Z,50.80
2018-06-17T04:59:31.931Z,49.80
2018-06-17T05:01:59.032Z,48.30
2018-06-17T05:04:25.966Z,48.60
2018-06-17T05:06:52.908Z,47.60
2018-06-17T05:09:19.888Z,47.40
2018-06-17T05:11:46.821Z,48.20
2018-06-17T05:14:13.751Z,50.10
2018-06-17T05:16:40.960Z,52.00
2018-06-17T05:19:07.874Z,53.30
2018-06-17T05:24:01.998Z,56.10
2018-06-17T05:26:28.930Z,57.80
2018-06-17T05:28:55.869Z,58.10
2018-06-17T05:31:22.822Z,58.30
2018-06-17T05:33:49.856Z,57.70
2018-06-17T05:36:16.814Z,57.20
2018-06-17T05:38:43.728Z,57.30
2018-06-17T05:43:37.722Z,56.70
2018-06-17T05:46:04.659Z,56.40
2018-06-17T05:48:31.591Z,55.70
2018-06-17T05:50:58.542Z,55.60
2018-06-17T05:53:25.548Z,54.80
2018-06-17T05:55:52.487Z,55.60
2018-06-17T05:58:19.449Z,54.00
2018-06-17T06:00:46.417Z,53.60
2018-06-17T06:03:13.967Z,52.70
2018-06-17T06:05:40.982Z,52.70
2018-06-17T06:08:07.991Z,52.40
2018-06-17T06:10:34.913Z,52.00
2018-06-17T06:13:01.929Z,51.10
2018-06-17T06:15:28.863Z,50.30
2018-06-17T06:17:55.789Z,49.50
2018-06-17T06:20:23.395Z,49.60
2018-06-17T06:22:50.483Z,48.30
2018-06-17T06:25:17.423Z,46.80
2018-06-17T06:27:44.367Z,45.50
2018-06-17T06:30:11.299Z,43.60
2018-06-17T06:32:38.237Z,42.70
2018-06-17T06:35:05.226Z,43.60
2018-06-17T06:37:32.185Z,42.20
2018-06-17T06:39:59.277Z,40.70
2018-06-17T06:42:26.263Z,40.00
2018-06-17T06:44:53.205Z,40.00
2018-06-17T06:47:20.161Z,40.40
2018-06-17T06:49:47.116Z,39.20
2018-06-17T06:52:14.209Z,40.30
2018-06-17T06:54:41.139Z,38.40
2018-06-17T06:57:08.185Z,36.70
2018-06-17T06:59:35.137Z,37.20
2018-06-17T07:02:13.826Z,35.10
2018-06-17T07:04:53.025Z,35.50
2018-06-17T07:07:31.898Z,36.50
2018-06-17T07:10:10.625Z,35.10
2018-06-17T07:12:37.769Z,34.30
2018-06-17T07:15:05.307Z,34.60
2018-06-17T07:17:44.115Z,35.10
2018-06-17T07:20:11.073Z,35.70
2018-06-17T07:22:38.025Z,35.80
2018-06-17T07:25:05.264Z,35.10
2018-06-17T07:27:43.947Z,34.50
2018-06-17T07:30:10.957Z,33.70
2018-06-17T07:32:37.915Z,33.80
2018-06-17T07:35:04.845Z,32.90
2018-06-17T07:37:31.794Z,33.10
2018-06-17T07:40:16.662Z,33.90
2018-06-17T07:42:44.009Z,34.50
2018-06-17T07:45:11.119Z,36.00
2018-06-17T07:47:38.053Z,36.20
2018-06-17T07:50:16.815Z,35.20
2018-06-17T07:52:55.447Z,35.20
2018-06-17T07:55:22.457Z,34.20
2018-06-17T07:57:49.409Z,35.50
2018-06-17T08:00:16.346Z,35.10
2018-06-17T08:02:43.336Z,36.10
2018-06-17T08:05:10.255Z,36.50
2018-06-17T08:07:37.291Z,35.60
2018-06-17T08:10:04.493Z,35.20
2018-06-17T08:12:31.425Z,35.50
2018-06-17T08:14:58.351Z,34.40
2018-06-17T08:29:40.508Z,34.10
2018-06-17T08:32:07.455Z,35.00
2018-06-17T08:34:34.394Z,35.60
2018-06-17T08:37:01.333Z,35.00
2018-06-17T08:39:28.305Z,35.40
2018-06-17T08:41:55.301Z,35.40
2018-06-17T08:44:22.395Z,35.60
2018-06-17T08:46:49.799Z,36.90
2018-06-17T08:54:11.296Z,36.80
2018-06-17T08:56:38.390Z,36.00
2018-06-17T08:59:05.314Z,34.50
2018-06-17T15:10:46.377Z,34.00
2018-06-17T15:13:13.689Z,34.40
2018-06-17T15:15:40.634Z,34.70
2018-06-17T15:18:08.636Z,35.00
2018-06-17T15:20:35.619Z,34.40
2018-06-17T15:30:24.699Z,34.30
2018-06-17T15:57:46.388Z,30.70
2018-06-17T16:02:40.591Z,31.70
2018-06-17T16:05:07.820Z,32.50
2018-06-17T16:07:35.079Z,33.20
2018-06-17T16:16:11.313Z,33.10
2018-06-17T16:18:44.210Z,32.00
2018-06-17T16:21:11.194Z,31.80
2018-06-17T16:23:38.814Z,31.90
2018-06-17T16:26:06.046Z,31.40
2018-06-17T16:28:33.096Z,31.20
2018-06-17T16:31:00.068Z,31.50
2018-06-17T16:33:27.070Z,32.70
2018-06-17T16:35:55.097Z,32.60
2018-06-17T16:38:22.985Z,32.90
2018-06-17T16:40:50.227Z,33.00
2018-06-17T16:43:17.237Z,33.70
2018-06-17T16:45:44.788Z,34.20
2018-06-17T16:48:11.941Z,33.60
2018-06-17T16:50:38.914Z,33.80
2018-06-17T16:53:11.912Z,34.50
2018-06-17T16:55:44.831Z,34.90
2018-06-17T16:58:17.709Z,33.90
2018-06-17T17:00:45.051Z,34.50
2018-06-17T17:03:12.224Z,34.40
2018-06-17T17:05:39.224Z,33.90
2018-06-17T17:08:06.186Z,33.30
2018-06-17T17:10:33.223Z,32.70
2018-06-17T17:13:00.387Z,32.80
2018-06-17T17:15:27.346Z,32.90
2018-06-17T17:17:54.310Z,32.60
2018-06-17T17:20:21.415Z,32.90
2018-06-17T17:22:48.435Z,33.30
2018-06-17T17:25:15.412Z,33.50
2018-06-17T17:27:42.352Z,33.80
2018-06-17T17:30:09.477Z,34.30
2018-06-17T17:32:42.624Z,34.00
2018-06-17T17:35:15.461Z,34.30
2018-06-17T17:37:48.360Z,34.50
2018-06-17T17:40:21.192Z,35.10
2018-06-17T17:42:48.230Z,34.90
2018-06-17T17:45:20.368Z,34.80
2018-06-17T17:47:47.405Z,35.50
2018-06-17T17:50:14.299Z,35.20
2018-06-17T17:52:41.466Z,35.30
2018-06-17T17:55:08.645Z,35.80
2018-06-17T17:57:35.706Z,35.90
2018-06-17T18:00:02.725Z,35.80
2018-06-17T18:02:29.901Z,36.20
2018-06-17T18:04:57.184Z,36.60
2018-06-17T18:07:24.190Z,36.40
2018-06-17T18:09:51.130Z,36.60
2018-06-17T18:12:18.102Z,36.60
2018-06-17T18:14:45.243Z,36.30
2018-06-17T18:17:12.260Z,36.60
2018-06-17T18:19:39.525Z,36.10
2018-06-17T18:22:06.692Z,35.50
2018-06-17T18:24:33.739Z,36.40
2018-06-17T18:27:06.668Z,35.90
2018-06-17T18:29:39.542Z,36.70
2018-06-17T18:32:12.322Z,35.90
2018-06-17T18:34:45.711Z,36.30
2018-06-17T18:37:12.726Z,36.80
2018-06-17T18:39:39.850Z,36.50
2018-06-17T18:42:06.967Z,36.90
2018-06-17T18:44:34.113Z,36.60
2018-06-17T18:47:01.144Z,37.00
2018-06-17T18:49:28.117Z,37.00
2018-06-17T18:51:55.255Z,37.30
2018-06-17T18:54:22.269Z,37.60
2018-06-17T18:56:50.452Z,37.40
2018-06-17T19:01:44.756Z,37.60
2018-06-17T19:04:11.756Z,37.90
2018-06-17T19:06:38.851Z,38.00
2018-06-17T19:09:12.852Z,37.90
2018-06-17T19:11:46.060Z,38.20
2018-06-17T19:15:21.589Z,40.00
2018-06-17T19:17:54.417Z,38.10
2018-06-17T19:20:22.218Z,37.50
2018-06-17T19:22:49.189Z,37.50
2018-06-17T19:25:16.282Z,39.10
2018-06-17T19:27:43.479Z,38.60
2018-06-17T19:30:10.640Z,38.80
2018-06-17T19:32:37.589Z,38.90
2018-06-17T19:35:04.821Z,38.50
2018-06-17T19:37:31.784Z,38.80
2018-06-17T19:39:59.515Z,38.40
2018-06-17T19:42:26.473Z,38.40
2018-06-17T19:44:53.688Z,38.20
2018-06-17T19:47:20.846Z,39.10
2018-06-17T19:49:53.740Z,39.40
2018-06-17T19:52:26.476Z,38.50
2018-06-17T19:54:59.431Z,39.60
2018-06-17T19:57:32.065Z,39.10
2018-06-17T20:00:04.919Z,38.20
2018-06-17T20:02:32.133Z,38.50
2018-06-17T20:04:59.078Z,39.30
2018-06-17T20:07:26.305Z,39.00
2018-06-17T20:09:53.386Z,38.60
2018-06-17T20:12:20.602Z,38.40
2018-06-17T20:14:47.659Z,38.70
2018-06-17T20:17:14.603Z,39.00
2018-06-17T20:19:41.667Z,38.60
2018-06-17T20:22:08.638Z,39.20
2018-06-17T20:24:36.081Z,39.40
2018-06-17T20:27:03.137Z,38.50
2018-06-17T20:29:30.087Z,39.50
2018-06-17T20:32:03.123Z,39.70
2018-06-17T20:34:36.140Z,38.90
2018-06-17T20:37:08.869Z,39.70
2018-06-17T20:39:41.646Z,39.10
2018-06-17T20:42:14.473Z,39.00
2018-06-17T20:44:41.418Z,39.20
2018-06-17T20:47:08.409Z,39.70
2018-06-17T20:49:35.666Z,39.90
2018-06-17T20:52:02.964Z,39.60
2018-06-17T20:54:29.888Z,40.00
2018-06-17T20:56:56.867Z,40.50
2018-06-17T20:59:23.952Z,40.30
2018-06-17T21:01:50.896Z,40.70
2018-06-17T21:04:17.866Z,40.50
2018-06-17T21:06:44.857Z,40.30
2018-06-17T21:09:11.969Z,40.60
2018-06-17T21:11:39.193Z,40.50
2018-06-17T21:14:06.451Z,40.70
2018-06-17T21:16:33.429Z,40.60
2018-06-17T21:19:06.516Z,41.30
2018-06-17T21:21:39.337Z,41.20
2018-06-17T21:24:12.247Z,40.40
2018-06-17T21:26:45.227Z,40.50
2018-06-17T21:29:12.172Z,40.90
2018-06-17T21:31:39.289Z,41.30
2018-06-17T21:34:06.757Z,41.10
2018-06-17T21:36:33.685Z,41.00
2018-06-17T21:39:00.643Z,40.70
2018-06-17T21:41:28.170Z,42.70
2018-06-17T21:43:55.201Z,41.60
2018-06-17T21:46:22.129Z,42.10
2018-06-17T21:48:49.119Z,41.80
2018-06-17T21:51:16.083Z,42.50
2018-06-17T21:53:43.040Z,42.10
2018-06-17T21:56:10.355Z,42.20
2018-06-17T21:58:43.334Z,43.30
2018-06-17T22:01:10.522Z,43.10
2018-06-17T22:03:37.453Z,43.00
2018-06-17T22:06:04.381Z,44.10
2018-06-17T22:08:37.253Z,44.00
2018-06-17T22:11:10.084Z,44.90
2018-06-17T22:13:42.805Z,44.60
2018-06-17T22:16:15.649Z,44.10
2018-06-17T22:18:42.846Z,44.40
2018-06-17T22:21:09.785Z,44.80
2018-06-17T22:23:37.007Z,45.20
2018-06-17T22:26:04.135Z,45.00
2018-06-17T22:28:31.061Z,45.40
2018-06-17T22:30:57.984Z,44.80
2018-06-17T22:33:24.940Z,45.20
2018-06-17T22:35:51.903Z,45.40
2018-06-17T22:38:18.822Z,45.80
2018-06-17T22:40:45.901Z,45.80
2018-06-17T22:43:13.105Z,46.10
2018-06-17T22:45:40.035Z,44.90
2018-06-17T22:48:07.023Z,45.40
2018-06-17T22:50:33.978Z,44.80
2018-06-17T22:53:12.900Z,45.00
2018-06-17T22:55:39.819Z,44.90
2018-06-17T22:58:12.826Z,45.50
2018-06-17T23:00:45.540Z,46.10
2018-06-17T23:03:18.377Z,46.70
2018-06-17T23:05:51.034Z,46.80
2018-06-17T23:08:24.045Z,46.80
2018-06-17T23:10:51.072Z,46.60
2018-06-17T23:13:18.002Z,46.90
2018-06-17T23:15:45.808Z,46.70
2018-06-17T23:18:12.787Z,46.60
2018-06-17T23:20:39.731Z,47.00
2018-06-17T23:23:06.813Z,47.10
2018-06-17T23:25:33.742Z,46.50
2018-06-17T23:28:00.661Z,47.80
2018-06-17T23:30:27.907Z,47.80
2018-06-17T23:32:55.105Z,47.20
2018-06-17T23:35:22.069Z,47.80
2018-06-17T23:37:49.028Z,48.50
2018-06-17T23:40:16.115Z,47.90
2018-06-17T23:42:43.044Z,47.90
2018-06-17T23:45:09.992Z,47.50
2018-06-17T23:47:42.836Z,47.90
2018-06-17T23:50:15.706Z,47.70
2018-06-17T23:52:48.520Z,46.80
2018-06-17T23:55:21.333Z,47.80
2018-06-17T23:57:48.245Z,48.20
